Time;durP1;ratioP1;P1;durP2;ratioP2;P2;SDS_P1;SDS_P2;PMS_P1;PMS_P2;Temp;Humidity;BMP_temperature;BMP_pressure;BME280_temperature;BME280_humidity;BME280_pressure;Samples;Min_cycle;Max_cycle;Signal;HPM_P1;HPM_P2
2024/04/23 00:00:59;;;;;;;5.30;3.37;;;1.50;99.90;;;;;;5438091;26;20282;-55
2024/04/23 00:03:25;;;;;;;4.73;4.10;;;1.60;99.90;;;;;;5473221;26;20517;-56
2024/04/23 00:05:53;;;;;;;4.03;3.63;;;1.60;99.90;;;;;;5478977;26;20736;-56
2024/04/23 00:08:19;;;;;;;5.80;3.77;;;1.60;99.90;;;;;;5483982;26;20366;-58
2024/04/23 00:10:51;;;;;;;3.90;3.43;;;1.70;99.90;;;;;;5475832;26;20256;-50
2024/04/23 00:13:16;;;;;;;3.40;3.10;;;1.60;99.90;;;;;;5473571;26;20249;-58
2024/04/23 00:15:45;;;;;;;5.70;3.23;;;1.60;99.90;;;;;;5484856;25;20230;-54
2024/04/23 00:18:11;;;;;;;4.23;3.20;;;1.50;99.90;;;;;;5434787;26;20245;-57
2024/04/23 00:20:39;;;;;;;6.00;3.23;;;1.50;99.90;;;;;;5481443;26;20291;-54
2024/04/23 00:23:05;;;;;;;5.27;3.80;;;1.50;99.90;;;;;;5496788;26;20685;-58
2024/04/23 00:25:34;;;;;;;7.53;3.47;;;1.40;99.90;;;;;;5469056;26;20241;-58
2024/04/23 00:28:02;;;;;;;4.13;3.60;;;1.40;99.90;;;;;;5471985;26;20729;-57
2024/04/23 00:30:31;;;;;;;3.80;3.40;;;1.40;99.90;;;;;;5476673;26;20292;-58
2024/04/23 00:32:57;;;;;;;4.10;3.63;;;1.30;99.90;;;;;;5442058;26;20809;-57
2024/04/23 00:35:25;;;;;;;3.57;3.27;;;1.30;99.90;;;;;;5484241;26;20229;-58
2024/04/23 00:37:51;;;;;;;5.33;3.37;;;1.30;99.90;;;;;;5471530;26;20744;-54
2024/04/23 00:40:19;;;;;;;4.33;3.67;;;1.30;99.90;;;;;;5469099;26;20236;-55
2024/04/23 00:42:45;;;;;;;5.43;3.53;;;1.30;99.90;;;;;;5478741;26;20291;-57
2024/04/23 00:45:18;;;;;;;4.57;3.57;;;1.30;99.90;;;;;;5480154;26;20233;-58
2024/04/23 00:47:46;;;;;;;3.80;3.50;;;1.20;99.90;;;;;;5448274;25;20345;-57
2024/04/23 00:50:15;;;;;;;4.00;3.57;;;1.20;99.90;;;;;;5493597;26;20276;-56
2024/04/23 00:52:41;;;;;;;5.33;3.77;;;1.20;99.90;;;;;;5484510;26;20241;-53
2024/04/23 00:55:09;;;;;;;4.67;3.97;;;1.20;99.90;;;;;;5477574;26;20773;-55
2024/04/23 00:57:35;;;;;;;4.97;4.00;;;1.30;99.90;;;;;;5477922;26;20368;-55
2024/04/23 01:00:04;;;;;;;4.10;3.40;;;1.20;99.90;;;;;;5470964;26;20242;-58
2024/04/23 01:02:36;;;;;;;5.37;3.87;;;1.10;99.90;;;;;;5470755;26;20288;-54
2024/04/23 01:05:02;;;;;;;4.20;3.77;;;1.10;99.90;;;;;;5429293;26;20291;-58
2024/04/23 01:07:30;;;;;;;6.40;3.87;;;1.10;99.90;;;;;;5460918;26;20241;-57
2024/04/23 01:09:56;;;;;;;4.73;3.50;;;1.10;99.90;;;;;;5494055;26;20578;-58
2024/04/23 01:12:25;;;;;;;6.10;4.13;;;1.10;99.90;;;;;;5453615;26;20286;-56
2024/04/23 01:14:52;;;;;;;5.53;4.03;;;1.00;99.90;;;;;;5472715;26;20275;-54
2024/04/23 01:17:21;;;;;;;6.67;3.90;;;0.90;99.90;;;;;;5472931;26;20238;-56
2024/04/23 01:19:55;;;;;;;4.63;3.73;;;0.90;99.90;;;;;;5438135;26;20347;-50
2024/04/23 01:22:31;;;;;;;3.60;3.30;;;0.90;99.90;;;;;;5459702;26;20254;-58
2024/04/23 01:25:03;;;;;;;4.70;3.80;;;0.90;99.90;;;;;;5475856;26;20237;-58
2024/04/23 01:27:35;;;;;;;4.83;4.10;;;0.80;99.90;;;;;;5475286;26;20227;-58
2024/04/23 01:30:02;;;;;;;5.33;3.90;;;0.80;99.90;;;;;;5492066;26;20335;-55
2024/04/23 01:32:32;;;;;;;4.90;3.57;;;0.70;99.90;;;;;;5474493;26;20296;-59
2024/04/23 01:34:59;;;;;;;7.73;4.93;;;0.70;99.90;;;;;;5438746;26;20240;-56
2024/04/23 01:37:30;;;;;;;6.10;4.67;;;0.70;99.90;;;;;;5465334;26;20283;-59
2024/04/23 01:39:57;;;;;;;5.90;4.53;;;0.80;99.90;;;;;;5472724;26;20325;-59
2024/04/23 01:42:26;;;;;;;6.50;4.50;;;0.80;99.90;;;;;;5464111;26;20246;-58
2024/04/23 01:44:56;;;;;;;5.87;3.53;;;0.80;99.90;;;;;;5472475;26;21320;-53
2024/04/23 01:47:24;;;;;;;6.03;4.63;;;0.80;99.90;;;;;;5467007;26;20801;-57
2024/04/23 01:49:51;;;;;;;5.03;4.17;;;0.80;99.90;;;;;;5429549;26;21491;-57
2024/04/23 01:52:20;;;;;;;6.80;4.90;;;0.80;99.90;;;;;;5455386;26;20352;-57
2024/04/23 01:54:45;;;;;;;5.37;4.20;;;0.70;99.90;;;;;;5458372;26;20594;-58
2024/04/23 01:57:14;;;;;;;5.80;3.80;;;0.70;99.90;;;;;;5477713;26;20783;-55
2024/04/23 01:59:45;;;;;;;5.53;4.20;;;0.70;99.90;;;;;;5487656;26;20607;-56
2024/04/23 02:02:18;;;;;;;5.77;4.33;;;0.70;99.90;;;;;;5485134;26;20300;-58
2024/04/23 02:04:44;;;;;;;5.10;3.67;;;0.60;99.90;;;;;;5482778;26;20233;-54
2024/04/23 02:07:13;;;;;;;5.50;4.07;;;0.70;99.90;;;;;;5416803;26;20280;-55
2024/04/23 02:09:41;;;;;;;8.40;4.50;;;0.70;99.90;;;;;;5471293;25;20236;-54
2024/04/23 02:12:14;;;;;;;6.83;4.70;;;0.70;99.90;;;;;;5483131;26;20287;-58
2024/04/23 02:14:40;;;;;;;4.97;3.47;;;0.80;99.90;;;;;;5469396;26;20232;-54
2024/04/23 02:17:09;;;;;;;6.80;4.30;;;0.80;99.90;;;;;;5469480;26;20790;-57
2024/04/23 02:19:37;;;;;;;4.67;3.60;;;0.70;99.90;;;;;;5492722;26;20286;-57
2024/04/23 02:22:06;;;;;;;6.07;4.30;;;0.70;99.90;;;;;;5421866;26;20249;-59
2024/04/23 02:24:32;;;;;;;7.47;4.87;;;0.60;99.90;;;;;;5478522;26;20573;-56
2024/04/23 02:27:02;;;;;;;5.93;4.20;;;0.50;99.90;;;;;;5475960;26;20282;-58
2024/04/23 02:29:28;;;;;;;7.90;4.37;;;0.50;99.90;;;;;;5473394;26;20224;-57
2024/04/23 02:32:00;;;;;;;5.20;3.90;;;0.50;99.90;;;;;;5474229;26;20728;-59
2024/04/23 02:34:26;;;;;;;5.33;3.63;;;0.40;99.90;;;;;;5480805;26;20224;-58
2024/04/23 02:36:57;;;;;;;6.07;3.67;;;0.50;99.90;;;;;;5434104;26;20976;-59
2024/04/23 02:39:23;;;;;;;6.17;4.43;;;0.50;99.90;;;;;;5466274;26;20237;-56
2024/04/23 02:41:53;;;;;;;4.13;3.73;;;0.50;99.90;;;;;;5487301;26;20577;-54
2024/04/23 02:44:19;;;;;;;5.87;4.53;;;0.50;99.90;;;;;;5475160;26;20322;-55
2024/04/23 02:46:48;;;;;;;6.20;4.53;;;0.40;99.90;;;;;;5476818;26;20232;-57
2024/04/23 02:49:14;;;;;;;4.97;3.93;;;0.40;99.90;;;;;;5467283;26;20681;-58
2024/04/23 02:51:49;;;;;;;5.50;4.53;;;0.40;99.90;;;;;;5442294;26;20283;-57
2024/04/23 02:54:18;;;;;;;5.97;4.70;;;0.40;99.90;;;;;;5474420;26;20250;-53
2024/04/23 02:56:48;;;;;;;5.23;4.17;;;0.50;99.90;;;;;;5496128;26;20233;-56
2024/04/23 02:59:14;;;;;;;4.57;4.00;;;0.50;99.90;;;;;;5463397;26;20309;-55
2024/04/23 03:01:42;;;;;;;6.17;4.20;;;0.50;99.90;;;;;;5475876;26;20228;-59
2024/04/23 03:04:08;;;;;;;6.43;4.33;;;0.60;99.90;;;;;;5471338;26;20244;-58
2024/04/23 03:06:37;;;;;;;5.73;4.50;;;0.60;99.90;;;;;;5463588;26;20275;-59
2024/04/23 03:09:03;;;;;;;6.20;4.30;;;0.50;99.90;;;;;;5465833;25;20322;-54
2024/04/23 03:11:34;;;;;;;4.40;3.93;;;0.40;99.90;;;;;;5468865;26;20272;-58
2024/04/23 03:14:00;;;;;;;5.87;4.43;;;0.40;99.90;;;;;;5488563;26;20225;-54
2024/04/23 03:16:28;;;;;;;5.87;4.27;;;0.40;99.90;;;;;;5473303;26;20233;-58
2024/04/23 03:18:54;;;;;;;7.17;4.00;;;0.40;99.90;;;;;;5466088;26;21239;-57
2024/04/23 03:21:22;;;;;;;5.03;4.37;;;0.40;99.90;;;;;;5486953;26;20232;-55
2024/04/23 03:23:48;;;;;;;5.93;3.83;;;0.30;99.90;;;;;;5442654;26;20278;-57
2024/04/23 03:26:17;;;;;;;6.67;5.17;;;0.30;99.90;;;;;;5478936;26;20603;-56
2024/04/23 03:28:45;;;;;;;6.03;4.73;;;0.30;99.90;;;;;;5479679;26;20603;-58
2024/04/23 03:31:14;;;;;;;7.93;4.87;;;0.20;99.90;;;;;;5470015;26;20278;-59
2024/04/23 03:33:40;;;;;;;6.50;4.60;;;0.20;99.90;;;;;;5475273;26;20237;-58
2024/04/23 03:36:09;;;;;;;5.10;4.10;;;0.20;99.90;;;;;;5486503;26;21110;-57
2024/04/23 03:38:38;;;;;;;8.20;4.90;;;0.20;99.90;;;;;;5442639;25;20237;-60
2024/04/23 03:41:06;;;;;;;6.80;4.67;;;0.20;99.90;;;;;;5471312;26;20238;-57
2024/04/23 03:43:35;;;;;;;6.07;4.37;;;0.20;99.90;;;;;;5475064;26;20278;-58
2024/04/23 03:46:06;;;;;;;5.87;5.00;;;0.20;99.90;;;;;;5447033;26;20278;-56
2024/04/23 03:48:35;;;;;;;4.90;3.97;;;0.10;99.90;;;;;;5472401;26;20336;-58
2024/04/23 03:51:00;;;;;;;6.27;3.90;;;0.10;99.90;;;;;;5488364;26;20238;-57
2024/04/23 03:53:29;;;;;;;7.37;4.97;;;0.10;99.90;;;;;;5429768;26;20246;-53
2024/04/23 03:55:55;;;;;;;5.73;4.57;;;0.00;99.90;;;;;;5489744;25;20236;-51
2024/04/23 03:58:24;;;;;;;5.43;4.23;;;0.00;99.90;;;;;;5465616;26;21056;-58
2024/04/23 04:00:50;;;;;;;7.10;4.77;;;0.00;99.90;;;;;;5482803;26;20236;-57
2024/04/23 04:06:08;;;;;;;7.70;4.97;;;0.10;99.90;;;;;;5478384;26;20245;-54
2024/04/23 04:08:38;;;;;;;5.07;4.43;;;0.20;99.90;;;;;;5422588;26;26927;-55
2024/04/23 04:11:07;;;;;;;4.93;4.03;;;0.10;99.90;;;;;;5479780;26;20228;-57
2024/04/23 04:13:39;;;;;;;8.83;4.33;;;0.20;99.90;;;;;;5452186;26;20600;-53
2024/04/23 04:16:05;;;;;;;7.60;4.30;;;0.10;99.90;;;;;;5486122;26;20241;-57
2024/04/23 04:18:37;;;;;;;4.70;4.20;;;0.20;99.90;;;;;;5477333;26;20245;-54
2024/04/23 04:21:03;;;;;;;5.10;3.80;;;0.20;99.90;;;;;;5471729;26;20297;-59
2024/04/23 04:23:32;;;;;;;9.37;4.50;;;0.30;99.90;;;;;;5472149;26;20287;-55
2024/04/23 04:25:58;;;;;;;6.17;4.67;;;0.30;99.90;;;;;;5445860;25;20247;-59
2024/04/23 04:28:26;;;;;;;7.30;4.30;;;0.20;99.90;;;;;;5462781;26;20255;-56
2024/04/23 04:30:52;;;;;;;5.27;3.87;;;0.20;99.90;;;;;;5481995;26;20729;-55
2024/04/23 04:33:20;;;;;;;6.97;4.77;;;0.20;99.90;;;;;;5472832;26;20367;-59
2024/04/23 04:35:49;;;;;;;7.53;5.40;;;0.20;99.90;;;;;;5457185;26;20265;-58
2024/04/23 04:38:17;;;;;;;8.23;4.70;;;0.30;99.90;;;;;;5474321;26;20236;-53
2024/04/23 04:40:43;;;;;;;5.67;5.00;;;0.40;99.90;;;;;;5419462;26;20249;-60
2024/04/23 04:43:12;;;;;;;8.03;4.97;;;0.40;99.90;;;;;;5457141;26;20280;-53
2024/04/23 04:45:37;;;;;;;4.97;4.47;;;0.50;99.90;;;;;;5470311;26;20585;-58
2024/04/23 04:48:06;;;;;;;6.80;4.63;;;0.50;99.90;;;;;;5475965;26;21070;-58
2024/04/23 04:50:32;;;;;;;7.00;5.23;;;0.60;99.90;;;;;;5487319;26;20377;-58
2024/04/23 04:53:03;;;;;;;7.17;4.70;;;0.60;99.90;;;;;;5468781;25;20929;-57
2024/04/23 04:55:30;;;;;;;7.20;4.43;;;0.70;99.90;;;;;;5477305;26;20938;-56
2024/04/23 04:57:59;;;;;;;6.43;4.70;;;0.70;99.90;;;;;;5422222;26;20296;-55
2024/04/23 05:00:25;;;;;;;7.27;4.67;;;0.80;99.90;;;;;;5482207;26;20568;-54
2024/04/23 05:02:53;;;;;;;6.97;4.70;;;0.90;99.90;;;;;;5477935;26;20267;-57
2024/04/23 05:05:19;;;;;;;5.77;4.43;;;0.90;99.90;;;;;;5488404;26;20228;-53
2024/04/23 05:07:47;;;;;;;6.00;4.53;;;1.00;99.90;;;;;;5461417;26;20356;-58
2024/04/23 05:10:16;;;;;;;6.50;4.27;;;1.00;99.90;;;;;;5464008;25;20229;-55
2024/04/23 05:12:44;;;;;;;6.30;4.40;;;1.10;99.90;;;;;;5441010;26;20311;-56
2024/04/23 05:15:10;;;;;;;5.90;4.20;;;1.10;99.90;;;;;;5474323;26;20232;-58
2024/04/23 05:17:39;;;;;;;7.83;4.43;;;1.20;99.90;;;;;;5483460;26;20706;-58
2024/04/23 05:20:07;;;;;;;5.37;3.77;;;1.20;99.90;;;;;;5480362;26;20271;-57
2024/04/23 05:22:35;;;;;;;6.47;4.13;;;1.20;99.90;;;;;;5470147;26;20241;-56
2024/04/23 05:25:02;;;;;;;5.83;4.43;;;1.30;99.90;;;;;;5456262;26;20938;-54
2024/04/23 05:27:33;;;;;;;5.43;4.43;;;1.30;99.90;;;;;;5487202;26;20698;-56
2024/04/23 05:29:59;;;;;;;6.20;4.60;;;1.40;99.90;;;;;;5434020;26;20989;-55
2024/04/23 05:35:14;;;;;;;4.97;4.33;;;1.60;99.90;;;;;;5479147;26;20380;-57
2024/04/23 05:37:43;;;;;;;11.37;6.03;;;1.60;99.90;;;;;;5474913;26;20327;-59
2024/04/23 05:40:12;;;;;;;5.93;4.17;;;1.80;99.90;;;;;;5464819;26;20345;-55
2024/04/23 05:42:44;;;;;;;4.70;4.03;;;1.90;99.90;;;;;;5478722;25;20316;-57
2024/04/23 05:45:15;;;;;;;7.30;4.50;;;2.10;99.90;;;;;;5455465;26;20288;-57
2024/04/23 05:48:21;;;;;;;8.80;4.80;;;2.20;99.90;;;;;;5481975;26;20267;-55
2024/04/23 05:51:46;;;;;;;4.70;3.93;;;2.40;99.90;;;;;;5469432;26;20333;-54
2024/04/23 05:55:10;;;;;;;4.47;3.87;;;2.50;99.90;;;;;;5492470;26;20337;-56
2024/04/23 05:57:54;;;;;;;7.07;4.40;;;2.60;99.90;;;;;;5479732;26;20238;-54
2024/04/23 06:00:23;;;;;;;7.27;4.13;;;2.80;99.90;;;;;;5441434;26;20246;-55
2024/04/23 06:02:49;;;;;;;5.93;4.03;;;2.90;99.90;;;;;;5475908;26;20916;-56
2024/04/23 06:05:17;;;;;;;5.70;3.97;;;3.00;99.90;;;;;;5485417;26;20233;-55
2024/04/23 06:07:43;;;;;;;6.77;3.80;;;3.10;99.90;;;;;;5481428;26;20273;-56
2024/04/23 06:10:11;;;;;;;6.70;4.17;;;3.30;99.90;;;;;;5460476;26;20238;-56
2024/04/23 06:12:38;;;;;;;6.30;4.17;;;3.30;99.90;;;;;;5496975;26;20596;-56
2024/04/23 06:15:09;;;;;;;5.03;3.80;;;3.40;99.90;;;;;;5440564;26;20251;-56
2024/04/23 06:17:36;;;;;;;5.67;3.70;;;3.60;99.90;;;;;;5461693;26;21631;-57
2024/04/23 06:20:05;;;;;;;8.23;3.50;;;3.70;99.90;;;;;;5467014;26;20857;-55
2024/04/23 06:22:35;;;;;;;3.50;3.20;;;3.80;99.90;;;;;;5470808;26;20273;-56
2024/04/23 06:25:05;;;;;;;4.40;3.87;;;3.90;99.90;;;;;;5485670;26;20854;-56
2024/04/23 06:27:32;;;;;;;5.30;4.40;;;3.90;99.90;;;;;;5477957;26;20290;-61
2024/04/23 06:30:09;;;;;;;5.70;4.00;;;4.00;99.90;;;;;;5478088;26;20290;-55
2024/04/23 06:32:35;;;;;;;4.40;4.00;;;4.00;99.90;;;;;;5426085;26;20238;-54
2024/04/23 06:35:05;;;;;;;6.93;3.80;;;4.10;99.90;;;;;;5472931;26;20234;-56
2024/04/23 06:37:32;;;;;;;4.40;3.47;;;4.20;99.90;;;;;;5472743;26;20284;-57
2024/04/23 06:40:03;;;;;;;5.57;3.10;;;4.30;99.90;;;;;;5476417;26;20223;-55
2024/04/23 06:42:31;;;;;;;5.80;3.60;;;4.40;99.90;;;;;;5471013;26;20302;-57
2024/04/23 06:44:57;;;;;;;5.83;3.80;;;4.50;99.90;;;;;;5487883;26;20285;-54
2024/04/23 06:47:28;;;;;;;3.50;3.20;;;4.50;99.90;;;;;;5433707;26;21109;-57
2024/04/23 06:49:54;;;;;;;6.67;3.60;;;4.60;99.90;;;;;;5473415;26;20293;-56
2024/04/23 06:52:23;;;;;;;4.60;2.97;;;4.70;99.90;;;;;;5497257;26;20233;-57
2024/04/23 06:54:49;;;;;;;3.43;3.00;;;4.80;99.90;;;;;;5483391;26;20235;-54
2024/04/23 06:57:17;;;;;;;5.53;3.60;;;4.90;99.90;;;;;;5471878;26;20261;-57
2024/04/23 06:59:44;;;;;;;6.67;3.10;;;5.00;99.90;;;;;;5485621;26;20289;-55
2024/04/23 07:02:13;;;;;;;3.90;3.30;;;5.10;99.90;;;;;;5431136;26;20246;-55
2024/04/23 07:04:44;;;;;;;5.10;3.17;;;5.20;99.90;;;;;;5472696;26;20288;-57
2024/04/23 07:07:10;;;;;;;3.53;3.23;;;5.20;99.90;;;;;;5493252;26;20230;-56
2024/04/23 07:09:38;;;;;;;3.30;2.93;;;5.20;99.90;;;;;;5495175;26;20271;-57
2024/04/23 07:12:06;;;;;;;5.83;3.23;;;5.20;99.90;;;;;;5480750;26;20289;-55
2024/04/23 07:14:34;;;;;;;5.50;3.17;;;5.30;99.90;;;;;;5461220;26;20246;-55
2024/04/23 07:17:00;;;;;;;3.47;3.17;;;5.40;99.90;;;;;;5433569;26;20336;-57
2024/04/23 07:19:29;;;;;;;4.23;2.90;;;5.50;99.90;;;;;;5495860;26;20234;-57
2024/04/23 07:21:57;;;;;;;3.37;3.07;;;5.50;99.90;;;;;;5481710;26;20243;-52
2024/04/23 07:24:26;;;;;;;6.07;3.63;;;5.60;99.90;;;;;;5477359;26;20269;-56
2024/04/23 07:26:53;;;;;;;3.80;2.90;;;5.70;99.90;;;;;;5472519;26;21022;-57
2024/04/23 07:29:21;;;;;;;4.23;2.77;;;5.70;99.90;;;;;;5472393;26;20577;-57
2024/04/23 07:31:47;;;;;;;4.00;2.50;;;5.90;99.90;;;;;;5479244;26;20339;-53
2024/04/23 07:34:16;;;;;;;3.23;2.90;;;6.00;99.90;;;;;;5451680;26;20745;-57
2024/04/23 07:36:42;;;;;;;4.07;2.90;;;6.00;99.90;;;;;;5478997;26;20272;-54
2024/04/23 07:39:13;;;;;;;3.40;3.10;;;6.00;99.90;;;;;;5484311;26;20234;-55
2024/04/23 07:41:39;;;;;;;4.67;2.80;;;6.00;99.90;;;;;;5473253;26;20262;-56
2024/04/23 07:44:08;;;;;;;4.00;2.40;;;6.00;99.90;;;;;;5462118;26;20633;-56
2024/04/23 07:46:33;;;;;;;3.70;2.60;;;6.10;99.90;;;;;;5477528;26;20225;-55
2024/04/23 07:49:02;;;;;;;3.37;3.07;;;6.10;99.90;;;;;;5446666;26;20286;-55
2024/04/23 07:51:32;;;;;;;2.73;2.53;;;6.20;99.90;;;;;;5485054;26;20274;-57
2024/04/23 07:53:58;;;;;;;3.37;2.97;;;6.30;99.90;;;;;;5475908;26;20281;-55
2024/04/23 07:56:29;;;;;;;3.00;2.70;;;6.40;99.90;;;;;;5475502;26;20234;-56
2024/04/23 07:58:55;;;;;;;4.00;2.60;;;6.50;99.90;;;;;;5465559;26;20243;-57
2024/04/23 08:01:24;;;;;;;5.77;2.73;;;6.50;99.90;;;;;;5484562;26;20668;-56
2024/04/23 08:03:49;;;;;;;3.20;2.90;;;6.40;99.90;;;;;;5444843;26;20259;-55
2024/04/23 08:06:18;;;;;;;4.93;2.90;;;6.30;99.90;;;;;;5492449;26;20233;-56
2024/04/23 08:08:44;;;;;;;2.50;2.30;;;6.30;99.90;;;;;;5483019;26;20268;-55
2024/04/23 08:11:12;;;;;;;3.87;2.80;;;6.30;99.90;;;;;;5489387;26;20229;-56
2024/04/23 08:13:41;;;;;;;3.17;2.73;;;6.30;99.90;;;;;;5484936;26;22078;-55
2024/04/23 08:16:10;;;;;;;2.63;2.43;;;6.30;99.90;;;;;;5478935;26;20281;-53
2024/04/23 08:18:36;;;;;;;2.80;2.37;;;6.30;99.90;;;;;;5481257;26;20329;-55
2024/04/23 08:21:05;;;;;;;4.73;3.20;;;6.20;99.90;;;;;;5432361;26;20254;-55
2024/04/23 08:23:32;;;;;;;2.70;2.50;;;6.30;99.90;;;;;;5461349;26;20265;-56
2024/04/23 08:26:08;;;;;;;3.10;2.80;;;6.50;99.90;;;;;;5476602;26;20672;-56
2024/04/23 08:28:34;;;;;;;3.60;2.97;;;6.40;99.90;;;;;;5486436;26;20264;-53
2024/04/23 08:31:05;;;;;;;4.23;2.80;;;6.40;99.90;;;;;;5475317;26;20266;-55
2024/04/23 08:33:34;;;;;;;2.93;2.63;;;6.30;99.90;;;;;;5480660;26;21167;-55
2024/04/23 08:36:00;;;;;;;5.90;2.93;;;6.20;99.90;;;;;;5443976;26;20320;-52
2024/04/23 08:38:29;;;;;;;4.20;3.17;;;6.20;99.90;;;;;;5480393;26;20252;-56
2024/04/23 08:40:55;;;;;;;2.53;2.33;;;6.20;99.90;;;;;;5479876;26;20246;-56
2024/04/23 08:43:28;;;;;;;3.77;2.87;;;6.30;99.90;;;;;;5484174;26;20231;-54
2024/04/23 08:45:55;;;;;;;2.90;2.40;;;6.50;99.90;;;;;;5481737;26;20729;-55
2024/04/23 08:48:28;;;;;;;3.60;2.80;;;6.50;99.90;;;;;;5480412;26;20264;-57
2024/04/23 08:50:56;;;;;;;2.70;2.50;;;6.60;99.90;;;;;;5427451;26;20257;-56
2024/04/23 08:53:25;;;;;;;7.50;3.07;;;6.60;99.90;;;;;;5474852;26;20364;-56
2024/04/23 08:55:55;;;;;;;3.47;2.40;;;6.80;99.90;;;;;;5478572;26;20493;-56
2024/04/23 08:58:24;;;;;;;2.90;2.70;;;6.90;99.90;;;;;;5488086;26;20246;-57
2024/04/23 09:00:51;;;;;;;4.77;2.90;;;7.10;99.90;;;;;;5482808;26;20387;-56
2024/04/23 09:03:23;;;;;;;2.40;2.17;;;7.20;99.90;;;;;;5482295;26;20389;-56
2024/04/23 09:05:52;;;;;;;3.43;2.40;;;7.40;99.90;;;;;;5477238;26;20281;-55
2024/04/23 09:08:21;;;;;;;2.30;2.13;;;7.50;99.90;;;;;;5440131;25;20302;-57
2024/04/23 09:10:47;;;;;;;3.33;2.23;;;7.50;99.90;;;;;;5484348;26;20421;-56
2024/04/23 09:13:16;;;;;;;2.20;2.00;;;7.50;99.90;;;;;;5493966;26;20339;-57
2024/04/23 09:15:42;;;;;;;3.53;2.10;;;7.50;99.90;;;;;;5474311;26;20379;-57
2024/04/23 09:18:10;;;;;;;2.63;1.80;;;7.60;99.90;;;;;;5494151;26;20235;-57
2024/04/23 09:20:37;;;;;;;2.10;2.00;;;7.60;99.90;;;;;;5470784;26;20269;-57
2024/04/23 09:23:08;;;;;;;2.43;1.90;;;7.50;99.90;;;;;;5450275;26;20246;-57
2024/04/23 09:25:35;;;;;;;5.63;2.03;;;7.60;99.90;;;;;;5484884;26;20268;-57
2024/04/23 09:28:05;;;;;;;2.63;1.90;;;7.70;99.90;;;;;;5483944;26;20281;-57
2024/04/23 09:30:31;;;;;;;2.27;2.07;;;7.60;99.90;;;;;;5468377;26;20281;-56
2024/04/23 09:33:02;;;;;;;1.63;1.53;;;7.70;99.90;;;;;;5469873;25;20238;-57
2024/04/23 09:35:28;;;;;;;1.83;1.73;;;7.70;99.90;;;;;;5470582;26;20272;-57
2024/04/23 09:37:56;;;;;;;3.27;2.13;;;7.80;99.90;;;;;;5437323;26;20234;-57
2024/04/23 09:40:25;;;;;;;2.23;2.03;;;7.90;99.90;;;;;;5482632;26;20583;-57
2024/04/23 09:42:56;;;;;;;2.07;1.50;;;8.00;99.90;;;;;;5479722;26;20300;-56
2024/04/23 09:45:24;;;;;;;2.00;1.77;;;8.20;99.90;;;;;;5474102;26;20986;-57
2024/04/23 09:47:53;;;;;;;3.10;1.93;;;8.20;99.90;;;;;;5472944;26;20973;-57
2024/04/23 09:50:19;;;;;;;3.07;1.70;;;8.30;99.90;;;;;;5480779;26;20266;-57
2024/04/23 09:52:48;;;;;;;1.90;1.80;;;8.60;99.90;;;;;;5450165;26;25741;-55
2024/04/23 09:55:16;;;;;;;2.70;1.93;;;8.70;99.90;;;;;;5490617;26;20226;-55
2024/04/23 09:57:51;;;;;;;3.27;2.17;;;8.70;99.90;;;;;;5479567;26;20276;-57
2024/04/23 10:00:20;;;;;;;3.27;2.50;;;8.70;99.90;;;;;;5467434;26;20268;-58
2024/04/23 10:02:53;;;;;;;2.40;2.03;;;8.60;99.90;;;;;;5460619;26;20234;-57
2024/04/23 10:05:25;;;;;;;2.23;2.03;;;8.60;99.90;;;;;;5494186;26;20272;-57
2024/04/23 10:08:01;;;;;;;2.23;1.70;;;8.70;99.90;;;;;;5443950;26;20278;-57
2024/04/23 10:10:33;;;;;;;2.27;1.90;;;8.80;99.90;;;;;;5488712;26;20230;-57
2024/04/23 10:13:08;;;;;;;1.87;1.77;;;8.80;99.90;;;;;;5485734;26;20243;-57
2024/04/23 10:15:39;;;;;;;4.07;2.30;;;8.90;99.90;;;;;;5477668;26;20240;-55
2024/04/23 10:18:14;;;;;;;2.07;1.87;;;8.80;99.90;;;;;;5487275;26;20245;-57
2024/04/23 10:20:45;;;;;;;2.53;1.60;;;8.90;99.90;;;;;;5483584;26;20277;-56
2024/04/23 10:23:17;;;;;;;2.00;1.80;;;8.90;99.90;;;;;;5434825;26;20633;-56
2024/04/23 10:25:44;;;;;;;2.57;2.10;;;8.90;99.90;;;;;;5483238;26;20231;-55
2024/04/23 10:28:15;;;;;;;1.83;1.73;;;8.90;99.90;;;;;;5459462;26;20333;-57
2024/04/23 10:30:42;;;;;;;2.47;2.27;;;9.00;99.90;;;;;;5477909;26;20239;-57
2024/04/23 10:33:12;;;;;;;1.70;1.50;;;9.10;99.90;;;;;;5456920;26;20244;-56
2024/04/23 10:35:41;;;;;;;2.40;1.77;;;9.30;99.90;;;;;;5501296;26;20239;-56
2024/04/23 10:38:10;;;;;;;2.40;2.20;;;9.20;99.90;;;;;;5440107;26;20289;-57
2024/04/23 10:40:40;;;;;;;2.63;2.10;;;9.40;99.90;;;;;;5482249;26;20272;-57
2024/04/23 10:43:06;;;;;;;2.83;2.00;;;9.30;99.90;;;;;;5468274;26;20239;-57
2024/04/23 10:45:37;;;;;;;2.63;1.90;;;9.20;99.90;;;;;;5487491;26;20315;-57
2024/04/23 10:48:06;;;;;;;1.80;1.63;;;9.20;99.90;;;;;;5474407;26;20261;-55
2024/04/23 10:50:35;;;;;;;3.07;2.13;;;9.10;99.90;;;;;;5488122;26;20241;-53
2024/04/23 10:53:03;;;;;;;1.93;1.80;;;8.90;99.90;;;;;;5443127;25;20870;-57
2024/04/23 10:55:32;;;;;;;2.67;2.10;;;8.60;99.90;;;;;;5481679;26;20277;-56
2024/04/23 10:57:58;;;;;;;3.27;2.13;;;8.60;99.90;;;;;;5474079;26;20222;-57
2024/04/23 11:00:37;;;;;;;3.87;2.30;;;8.60;99.90;;;;;;5488369;26;20264;-56
2024/04/23 11:03:14;;;;;;;3.07;2.77;;;8.50;99.90;;;;;;5461588;26;20225;-55
2024/04/23 11:05:47;;;;;;;2.37;2.17;;;8.40;99.90;;;;;;5491170;26;20382;-55
2024/04/23 11:08:21;;;;;;;2.83;2.63;;;8.20;99.90;;;;;;5472054;26;20235;-55
2024/04/23 11:10:52;;;;;;;3.00;2.67;;;8.10;99.90;;;;;;5432984;25;20242;-55
2024/04/23 11:13:25;;;;;;;3.30;3.00;;;8.10;99.90;;;;;;5493359;26;20261;-53
2024/04/23 11:15:58;;;;;;;4.73;3.20;;;8.10;99.90;;;;;;5488186;26;20222;-56
2024/04/23 11:18:25;;;;;;;5.27;2.90;;;7.90;99.90;;;;;;5477567;26;20262;-57
2024/04/23 11:20:56;;;;;;;4.30;2.93;;;7.80;99.90;;;;;;5483688;26;20226;-55
2024/04/23 11:23:24;;;;;;;3.70;3.30;;;7.70;99.90;;;;;;5466257;26;20359;-57
2024/04/23 11:25:52;;;;;;;5.80;3.40;;;7.60;99.90;;;;;;5437314;26;20238;-56
2024/04/23 11:28:18;;;;;;;3.43;3.07;;;7.50;99.90;;;;;;5496608;26;20239;-54
2024/04/23 11:30:56;;;;;;;4.00;3.33;;;7.60;99.90;;;;;;5485045;26;20447;-57
2024/04/23 11:33:25;;;;;;;4.40;3.70;;;7.60;99.90;;;;;;5492756;26;20564;-56
2024/04/23 11:35:54;;;;;;;4.70;3.10;;;7.70;99.90;;;;;;5480070;26;20230;-56
2024/04/23 11:38:20;;;;;;;3.70;3.23;;;7.70;99.90;;;;;;5462710;26;21077;-55
2024/04/23 11:40:49;;;;;;;3.87;3.17;;;7.80;99.90;;;;;;5430150;26;20242;-57
2024/04/23 11:43:17;;;;;;;3.47;2.80;;;7.90;99.90;;;;;;5484521;26;20239;-57
2024/04/23 11:45:47;;;;;;;3.43;2.63;;;8.00;99.90;;;;;;5480696;26;21151;-58
2024/04/23 11:48:14;;;;;;;3.70;3.10;;;8.10;99.90;;;;;;5486539;26;20270;-56
2024/04/23 11:50:48;;;;;;;3.60;2.57;;;8.10;99.90;;;;;;5475997;26;20285;-56
2024/04/23 11:53:14;;;;;;;2.63;2.40;;;8.20;99.90;;;;;;5461802;26;20239;-54
2024/04/23 11:55:43;;;;;;;2.63;2.40;;;8.30;99.90;;;;;;5431281;26;20269;-55
2024/04/23 11:58:09;;;;;;;2.17;1.90;;;8.40;99.90;;;;;;5479650;26;20262;-56
2024/04/23 12:00:40;;;;;;;3.27;2.23;;;8.50;99.90;;;;;;5486955;26;20297;-57
2024/04/23 12:03:06;;;;;;;2.50;2.30;;;8.70;99.90;;;;;;5468928;26;20273;-57
2024/04/23 12:05:35;;;;;;;2.87;2.67;;;8.90;99.90;;;;;;5458874;26;20239;-55
2024/04/23 12:08:05;;;;;;;3.13;2.67;;;8.90;99.90;;;;;;5478261;26;20234;-58
2024/04/23 12:10:35;;;;;;;2.63;2.43;;;9.20;99.90;;;;;;5446132;25;20249;-51
2024/04/23 12:13:02;;;;;;;3.17;2.87;;;9.40;99.90;;;;;;5486673;26;20231;-57
2024/04/23 12:15:33;;;;;;;2.53;2.33;;;9.40;99.90;;;;;;5493173;26;20233;-56
2024/04/23 12:18:00;;;;;;;3.77;2.33;;;9.50;99.90;;;;;;5478277;26;20277;-57
2024/04/23 12:20:29;;;;;;;3.00;2.60;;;9.70;99.90;;;;;;5465818;26;20300;-57
2024/04/23 12:23:12;;;;;;;2.83;2.63;;;9.90;99.90;;;;;;5478199;26;20310;-55
2024/04/23 12:25:40;;;;;;;5.80;2.40;;;10.30;99.90;;;;;;5446790;26;20655;-57
2024/04/23 12:28:10;;;;;;;2.50;2.20;;;10.40;99.80;;;;;;5481938;26;20321;-57
2024/04/23 12:30:36;;;;;;;2.20;2.00;;;10.30;98.50;;;;;;5486417;25;20226;-56
2024/04/23 12:33:11;;;;;;;1.93;1.83;;;10.20;98.50;;;;;;5476043;25;20234;-57
2024/04/23 12:35:38;;;;;;;2.50;2.30;;;10.00;98.00;;;;;;5469577;26;20257;-54
2024/04/23 12:38:07;;;;;;;2.37;2.17;;;9.90;97.90;;;;;;5481606;26;20408;-56
2024/04/23 12:40:36;;;;;;;5.03;2.00;;;9.70;97.30;;;;;;5479800;26;20788;-56
2024/04/23 12:43:10;;;;;;;2.43;2.23;;;9.70;97.80;;;;;;5434941;26;20618;-57
2024/04/23 12:45:40;;;;;;;2.97;2.20;;;9.70;98.10;;;;;;5488557;25;20883;-55
2024/04/23 12:48:07;;;;;;;2.50;2.30;;;9.60;97.80;;;;;;5468042;26;20274;-58
2024/04/23 12:50:35;;;;;;;2.63;2.10;;;9.50;97.90;;;;;;5475856;26;20757;-57
2024/04/23 12:53:01;;;;;;;2.67;1.90;;;9.40;98.30;;;;;;5478846;26;20799;-55
2024/04/23 12:55:30;;;;;;;2.07;1.87;;;9.40;98.40;;;;;;5475777;26;20323;-56
2024/04/23 12:57:59;;;;;;;3.17;2.40;;;9.40;98.60;;;;;;5438930;26;20283;-56
2024/04/23 13:00:27;;;;;;;3.30;2.60;;;9.40;97.60;;;;;;5479986;26;20974;-57
2024/04/23 13:02:53;;;;;;;2.47;2.27;;;9.20;98.20;;;;;;5474295;26;20334;-57
2024/04/23 13:05:22;;;;;;;2.20;2.10;;;9.10;98.60;;;;;;5487063;26;21302;-57
2024/04/23 13:07:48;;;;;;;3.70;2.50;;;9.00;98.40;;;;;;5480276;26;20227;-55
2024/04/23 13:10:17;;;;;;;2.70;2.50;;;9.00;98.40;;;;;;5474435;26;20253;-55
2024/04/23 13:12:46;;;;;;;4.90;2.70;;;9.00;98.20;;;;;;5441081;26;20264;-56